sensor_id;sensor_type;location;lat;lon;timestamp;temperature;humidity
37956;DHT22;23776;51.592;7.180;2024-01-16T00:01:26;1.30;82.20
37956;DHT22;23776;51.592;7.180;2024-01-16T00:03:52;1.30;79.00
37956;DHT22;23776;51.592;7.180;2024-01-16T00:06:17;1.40;78.40
37956;DHT22;23776;51.592;7.180;2024-01-16T00:08:43;1.40;76.20
37956;DHT22;23776;51.592;7.180;2024-01-16T00:11:08;1.40;70.40
37956;DHT22;23776;51.592;7.180;2024-01-16T00:13:35;1.50;73.30
37956;DHT22;23776;51.592;7.180;2024-01-16T00:16:02;1.60;70.80
37956;DHT22;23776;51.592;7.180;2024-01-16T00:18:29;1.60;68.70
37956;DHT22;23776;51.592;7.180;2024-01-16T00:20:55;1.50;65.60
37956;DHT22;23776;51.592;7.180;2024-01-16T00:23:20;1.60;67.10
37956;DHT22;23776;51.592;7.180;2024-01-16T00:25:46;1.50;65.30
37956;DHT22;23776;51.592;7.180;2024-01-16T00:28:11;1.60;68.00
37956;DHT22;23776;51.592;7.180;2024-01-16T00:30:37;1.50;63.70
37956;DHT22;23776;51.592;7.180;2024-01-16T00:33:03;1.50;68.80
37956;DHT22;23776;51.592;7.180;2024-01-16T00:35:28;1.50;66.90
37956;DHT22;23776;51.592;7.180;2024-01-16T00:37:54;1.50;65.00
37956;DHT22;23776;51.592;7.180;2024-01-16T00:40:19;-0.60;59.90
37956;DHT22;23776;51.592;7.180;2024-01-16T00:42:45;1.60;58.00
37956;DHT22;23776;51.592;7.180;2024-01-16T00:45:11;1.50;58.40
37956;DHT22;23776;51.592;7.180;2024-01-16T00:47:36;1.60;54.90
37956;DHT22;23776;51.592;7.180;2024-01-16T00:50:02;1.50;57.40
37956;DHT22;23776;51.592;7.180;2024-01-16T00:52:28;1.50;59.20
37956;DHT22;23776;51.592;7.180;2024-01-16T00:54:53;1.50;59.00
37956;DHT22;23776;51.592;7.180;2024-01-16T00:57:19;1.40;60.90
37956;DHT22;23776;51.592;7.180;2024-01-16T00:59:48;1.40;62.50
37956;DHT22;23776;51.592;7.180;2024-01-16T01:02:14;1.40;60.60
37956;DHT22;23776;51.592;7.180;2024-01-16T01:04:40;1.40;64.60
37956;DHT22;23776;51.592;7.180;2024-01-16T01:07:07;1.30;66.00
37956;DHT22;23776;51.592;7.180;2024-01-16T01:09:33;1.20;72.20
37956;DHT22;23776;51.592;7.180;2024-01-16T01:11:59;1.20;72.70
37956;DHT22;23776;51.592;7.180;2024-01-16T01:14:24;1.10;77.00
37956;DHT22;23776;51.592;7.180;2024-01-16T01:16:52;1.20;80.10
37956;DHT22;23776;51.592;7.180;2024-01-16T01:19:18;1.20;81.00
37956;DHT22;23776;51.592;7.180;2024-01-16T01:21:43;1.30;78.20
37956;DHT22;23776;51.592;7.180;2024-01-16T01:24:09;1.30;73.70
37956;DHT22;23776;51.592;7.180;2024-01-16T01:26:34;1.20;71.80
37956;DHT22;23776;51.592;7.180;2024-01-16T01:29:01;1.20;77.90
37956;DHT22;23776;51.592;7.180;2024-01-16T01:31:26;1.80;77.30
37956;DHT22;23776;51.592;7.180;2024-01-16T01:33:52;1.20;75.00
37956;DHT22;23776;51.592;7.180;2024-01-16T01:36:17;1.20;76.50
37956;DHT22;23776;51.592;7.180;2024-01-16T01:38:43;1.20;75.00
37956;DHT22;23776;51.592;7.180;2024-01-16T01:41:08;1.30;73.40
37956;DHT22;23776;51.592;7.180;2024-01-16T01:43:37;1.40;72.80
37956;DHT22;23776;51.592;7.180;2024-01-16T01:46:12;1.40;71.20
37956;DHT22;23776;51.592;7.180;2024-01-16T01:48:41;1.30;66.50
37956;DHT22;23776;51.592;7.180;2024-01-16T01:51:08;1.30;68.80
37956;DHT22;23776;51.592;7.180;2024-01-16T01:53:34;1.30;68.10
37956;DHT22;23776;51.592;7.180;2024-01-16T01:56:03;1.30;66.60
37956;DHT22;23776;51.592;7.180;2024-01-16T01:58:29;1.40;66.90
37956;DHT22;23776;51.592;7.180;2024-01-16T02:00:55;1.20;65.90
37956;DHT22;23776;51.592;7.180;2024-01-16T02:03:21;1.20;71.60
37956;DHT22;23776;51.592;7.180;2024-01-16T02:05:49;1.20;70.00
37956;DHT22;23776;51.592;7.180;2024-01-16T02:08:15;1.20;70.90
37956;DHT22;23776;51.592;7.180;2024-01-16T02:10:42;1.20;71.90
37956;DHT22;23776;51.592;7.180;2024-01-16T02:13:10;1.20;70.60
37956;DHT22;23776;51.592;7.180;2024-01-16T02:15:36;1.20;69.40
37956;DHT22;23776;51.592;7.180;2024-01-16T02:18:01;1.20;68.70
37956;DHT22;23776;51.592;7.180;2024-01-16T02:20:27;1.10;71.70
37956;DHT22;23776;51.592;7.180;2024-01-16T02:22:55;1.20;69.10
37956;DHT22;23776;51.592;7.180;2024-01-16T02:25:20;1.20;69.10
37956;DHT22;23776;51.592;7.180;2024-01-16T02:27:47;1.20;69.60
37956;DHT22;23776;51.592;7.180;2024-01-16T02:30:12;2.50;71.10
37956;DHT22;23776;51.592;7.180;2024-01-16T02:32:38;1.20;71.60
37956;DHT22;23776;51.592;7.180;2024-01-16T02:35:04;1.20;71.70
37956;DHT22;23776;51.592;7.180;2024-01-16T02:37:30;1.20;70.10
37956;DHT22;23776;51.592;7.180;2024-01-16T02:39:56;1.30;67.30
37956;DHT22;23776;51.592;7.180;2024-01-16T02:42:21;1.40;66.80
37956;DHT22;23776;51.592;7.180;2024-01-16T02:44:47;1.40;63.70
37956;DHT22;23776;51.592;7.180;2024-01-16T02:47:12;1.40;60.70
37956;DHT22;23776;51.592;7.180;2024-01-16T02:49:38;1.40;63.40
37956;DHT22;23776;51.592;7.180;2024-01-16T02:52:05;1.40;64.90
37956;DHT22;23776;51.592;7.180;2024-01-16T02:54:30;1.40;64.30
37956;DHT22;23776;51.592;7.180;2024-01-16T02:56:56;1.40;65.60
37956;DHT22;23776;51.592;7.180;2024-01-16T02:59:21;1.40;66.90
37956;DHT22;23776;51.592;7.180;2024-01-16T03:01:47;1.30;65.90
37956;DHT22;23776;51.592;7.180;2024-01-16T03:04:13;1.40;69.30
37956;DHT22;23776;51.592;7.180;2024-01-16T03:06:39;1.40;65.30
37956;DHT22;23776;51.592;7.180;2024-01-16T03:09:04;1.40;68.70
37956;DHT22;23776;51.592;7.180;2024-01-16T03:11:30;1.40;67.50
37956;DHT22;23776;51.592;7.180;2024-01-16T03:13:57;1.50;65.00
37956;DHT22;23776;51.592;7.180;2024-01-16T03:16:22;1.30;68.40
37956;DHT22;23776;51.592;7.180;2024-01-16T03:18:48;1.30;72.60
37956;DHT22;23776;51.592;7.180;2024-01-16T03:21:14;1.30;71.60
37956;DHT22;23776;51.592;7.180;2024-01-16T03:23:40;1.30;74.30
37956;DHT22;23776;51.592;7.180;2024-01-16T03:26:05;1.30;74.90
37956;DHT22;23776;51.592;7.180;2024-01-16T03:28:31;1.30;75.50
37956;DHT22;23776;51.592;7.180;2024-01-16T03:30:56;1.30;77.90
37956;DHT22;23776;51.592;7.180;2024-01-16T03:33:22;1.30;77.00
37956;DHT22;23776;51.592;7.180;2024-01-16T03:35:48;1.30;79.60
37956;DHT22;23776;51.592;7.180;2024-01-16T03:38:13;1.40;76.60
37956;DHT22;23776;51.592;7.180;2024-01-16T03:40:39;1.40;72.00
37956;DHT22;23776;51.592;7.180;2024-01-16T03:43:06;3.30;76.00
37956;DHT22;23776;51.592;7.180;2024-01-16T03:45:31;1.40;71.70
37956;DHT22;23776;51.592;7.180;2024-01-16T03:47:58;1.50;72.40
37956;DHT22;23776;51.592;7.180;2024-01-16T03:50:23;1.40;73.10
37956;DHT22;23776;51.592;7.180;2024-01-16T03:52:49;1.40;67.60
37956;DHT22;23776;51.592;7.180;2024-01-16T03:55:14;1.40;67.90
37956;DHT22;23776;51.592;7.180;2024-01-16T03:57:40;1.50;70.80
37956;DHT22;23776;51.592;7.180;2024-01-16T04:00:06;1.50;67.90
37956;DHT22;23776;51.592;7.180;2024-01-16T04:02:32;1.50;65.80
37956;DHT22;23776;51.592;7.180;2024-01-16T04:04:58;1.50;66.20
37956;DHT22;23776;51.592;7.180;2024-01-16T04:07:23;1.60;64.60
37956;DHT22;23776;51.592;7.180;2024-01-16T04:09:51;1.50;58.10
37956;DHT22;23776;51.592;7.180;2024-01-16T04:12:17;1.50;64.90
37956;DHT22;23776;51.592;7.180;2024-01-16T04:14:43;1.50;63.30
37956;DHT22;23776;51.592;7.180;2024-01-16T04:17:08;1.50;63.20
37956;DHT22;23776;51.592;7.180;2024-01-16T04:19:34;1.40;67.50
37956;DHT22;23776;51.592;7.180;2024-01-16T04:22:00;1.50;66.30
37956;DHT22;23776;51.592;7.180;2024-01-16T04:24:27;1.40;62.00
37956;DHT22;23776;51.592;7.180;2024-01-16T04:26:52;1.40;61.90
37956;DHT22;23776;51.592;7.180;2024-01-16T04:29:18;1.40;68.20
37956;DHT22;23776;51.592;7.180;2024-01-16T04:31:43;1.40;67.00
37956;DHT22;23776;51.592;7.180;2024-01-16T04:34:09;1.40;71.60
37956;DHT22;23776;51.592;7.180;2024-01-16T04:36:35;1.40;65.80
37956;DHT22;23776;51.592;7.180;2024-01-16T04:39:00;1.40;68.30
37956;DHT22;23776;51.592;7.180;2024-01-16T04:41:26;1.40;68.80
37956;DHT22;23776;51.592;7.180;2024-01-16T04:43:51;1.40;66.70
37956;DHT22;23776;51.592;7.180;2024-01-16T04:46:17;1.40;68.70
37956;DHT22;23776;51.592;7.180;2024-01-16T04:48:43;0.10;67.50
37956;DHT22;23776;51.592;7.180;2024-01-16T04:51:08;1.40;64.90
37956;DHT22;23776;51.592;7.180;2024-01-16T04:53:34;1.40;70.10
37956;DHT22;23776;51.592;7.180;2024-01-16T04:56:00;1.40;68.60
37956;DHT22;23776;51.592;7.180;2024-01-16T04:58:25;1.40;67.20
37956;DHT22;23776;51.592;7.180;2024-01-16T05:00:51;1.40;69.80
37956;DHT22;23776;51.592;7.180;2024-01-16T05:03:16;1.40;68.20
37956;DHT22;23776;51.592;7.180;2024-01-16T05:05:42;1.40;68.50
37956;DHT22;23776;51.592;7.180;2024-01-16T05:08:08;1.40;68.70
37956;DHT22;23776;51.592;7.180;2024-01-16T05:10:34;1.40;70.50
37956;DHT22;23776;51.592;7.180;2024-01-16T05:12:59;1.50;70.50
37956;DHT22;23776;51.592;7.180;2024-01-16T05:15:25;1.50;66.00
37956;DHT22;23776;51.592;7.180;2024-01-16T05:17:50;1.50;66.90
37956;DHT22;23776;51.592;7.180;2024-01-16T05:20:16;1.50;65.40
37956;DHT22;23776;51.592;7.180;2024-01-16T05:22:42;1.50;66.30
37956;DHT22;23776;51.592;7.180;2024-01-16T05:25:07;1.50;67.10
37956;DHT22;23776;51.592;7.180;2024-01-16T05:27:34;1.50;59.70
37956;DHT22;23776;51.592;7.180;2024-01-16T05:29:59;1.60;56.10
37956;DHT22;23776;51.592;7.180;2024-01-16T05:32:25;1.50;56.30
37956;DHT22;23776;51.592;7.180;2024-01-16T05:34:51;1.50;57.60
37956;DHT22;23776;51.592;7.180;2024-01-16T05:37:17;1.50;60.10
37956;DHT22;23776;51.592;7.180;2024-01-16T05:39:43;1.60;60.20
37956;DHT22;23776;51.592;7.180;2024-01-16T05:42:09;1.50;57.10
37956;DHT22;23776;51.592;7.180;2024-01-16T05:44:35;1.60;58.80
37956;DHT22;23776;51.592;7.180;2024-01-16T05:47:00;1.60;59.60
37956;DHT22;23776;51.592;7.180;2024-01-16T05:49:26;1.60;55.80
37956;DHT22;23776;51.592;7.180;2024-01-16T05:51:51;1.60;55.80
37956;DHT22;23776;51.592;7.180;2024-01-16T05:54:17;1.70;52.20
37956;DHT22;23776;51.592;7.180;2024-01-16T05:56:43;1.60;55.50
37956;DHT22;23776;51.592;7.180;2024-01-16T05:59:08;1.70;52.10
37956;DHT22;23776;51.592;7.180;2024-01-16T06:01:34;1.60;54.50
37956;DHT22;23776;51.592;7.180;2024-01-16T06:03:59;1.60;55.70
37956;DHT22;23776;51.592;7.180;2024-01-16T06:06:25;1.50;55.80
37956;DHT22;23776;51.592;7.180;2024-01-16T06:08:51;1.40;59.80
37956;DHT22;23776;51.592;7.180;2024-01-16T06:11:17;1.40;63.60
37956;DHT22;23776;51.592;7.180;2024-01-16T06:13:43;1.40;59.10
37956;DHT22;23776;51.592;7.180;2024-01-16T06:16:09;1.40;55.60
37956;DHT22;23776;51.592;7.180;2024-01-16T06:18:35;1.40;59.60
37956;DHT22;23776;51.592;7.180;2024-01-16T06:21:01;1.40;58.00
37956;DHT22;23776;51.592;7.180;2024-01-16T06:23:27;1.40;57.60
37956;DHT22;23776;51.592;7.180;2024-01-16T06:25:52;1.30;58.90
37956;DHT22;23776;51.592;7.180;2024-01-16T06:28:18;1.30;63.90
37956;DHT22;23776;51.592;7.180;2024-01-16T06:30:43;1.30;62.20
37956;DHT22;23776;51.592;7.180;2024-01-16T06:33:09;1.40;62.70
37956;DHT22;23776;51.592;7.180;2024-01-16T06:35:34;1.30;58.60
37956;DHT22;23776;51.592;7.180;2024-01-16T06:38:01;3.90;61.60
37956;DHT22;23776;51.592;7.180;2024-01-16T06:40:27;1.30;57.70
37956;DHT22;23776;51.592;7.180;2024-01-16T06:42:52;1.30;59.70
37956;DHT22;23776;51.592;7.180;2024-01-16T06:45:18;1.40;61.30
37956;DHT22;23776;51.592;7.180;2024-01-16T06:47:44;1.50;58.80
37956;DHT22;23776;51.592;7.180;2024-01-16T06:50:10;1.40;56.10
37956;DHT22;23776;51.592;7.180;2024-01-16T06:52:35;1.40;55.10
37956;DHT22;23776;51.592;7.180;2024-01-16T06:55:01;1.40;55.50
37956;DHT22;23776;51.592;7.180;2024-01-16T06:57:26;1.70;54.50
37956;DHT22;23776;51.592;7.180;2024-01-16T06:59:52;1.40;54.50
37956;DHT22;23776;51.592;7.180;2024-01-16T07:02:18;1.50;57.10
37956;DHT22;23776;51.592;7.180;2024-01-16T07:04:43;1.50;51.40
37956;DHT22;23776;51.592;7.180;2024-01-16T07:07:09;1.50;58.70
37956;DHT22;23776;51.592;7.180;2024-01-16T07:09:35;1.50;58.90
37956;DHT22;23776;51.592;7.180;2024-01-16T07:12:00;1.60;55.00
37956;DHT22;23776;51.592;7.180;2024-01-16T07:14:26;1.50;55.00
37956;DHT22;23776;51.592;7.180;2024-01-16T07:16:51;1.40;60.80
37956;DHT22;23776;51.592;7.180;2024-01-16T07:19:17;1.40;62.20
37956;DHT22;23776;51.592;7.180;2024-01-16T07:21:42;1.40;63.90
37956;DHT22;23776;51.592;7.180;2024-01-16T07:24:10;1.50;57.90
37956;DHT22;23776;51.592;7.180;2024-01-16T07:26:35;1.60;56.70
37956;DHT22;23776;51.592;7.180;2024-01-16T07:29:01;1.50;57.80
37956;DHT22;23776;51.592;7.180;2024-01-16T07:31:26;1.60;55.70
37956;DHT22;23776;51.592;7.180;2024-01-16T07:33:52;1.50;55.40
37956;DHT22;23776;51.592;7.180;2024-01-16T07:36:18;1.50;55.80
37956;DHT22;23776;51.592;7.180;2024-01-16T07:38:43;1.50;50.00
37956;DHT22;23776;51.592;7.180;2024-01-16T07:41:09;1.50;50.10
37956;DHT22;23776;51.592;7.180;2024-01-16T07:43:35;1.50;51.10
37956;DHT22;23776;51.592;7.180;2024-01-16T07:46:00;1.50;45.90
37956;DHT22;23776;51.592;7.180;2024-01-16T07:48:26;1.50;45.90
37956;DHT22;23776;51.592;7.180;2024-01-16T07:50:52;1.60;43.00
37956;DHT22;23776;51.592;7.180;2024-01-16T07:53:17;1.60;40.50
37956;DHT22;23776;51.592;7.180;2024-01-16T07:55:43;1.60;37.00
37956;DHT22;23776;51.592;7.180;2024-01-16T07:58:12;1.60;40.20
37956;DHT22;23776;51.592;7.180;2024-01-16T08:00:38;1.60;41.40
37956;DHT22;23776;51.592;7.180;2024-01-16T08:03:06;1.60;37.00
37956;DHT22;23776;51.592;7.180;2024-01-16T08:05:32;1.50;37.10
37956;DHT22;23776;51.592;7.180;2024-01-16T08:07:57;1.60;29.60
37956;DHT22;23776;51.592;7.180;2024-01-16T08:10:23;1.60;25.20
37956;DHT22;23776;51.592;7.180;2024-01-16T08:12:49;1.60;21.50
37956;DHT22;23776;51.592;7.180;2024-01-16T08:15:14;1.60;21.80
37956;DHT22;23776;51.592;7.180;2024-01-16T08:17:40;1.50;17.40
37956;DHT22;23776;51.592;7.180;2024-01-16T08:20:06;1.50;16.00
37956;DHT22;23776;51.592;7.180;2024-01-16T08:22:37;1.50;9.60
37956;DHT22;23776;51.592;7.180;2024-01-16T08:25:03;1.50;9.90
37956;DHT22;23776;51.592;7.180;2024-01-16T08:27:32;1.50;8.80
37956;DHT22;23776;51.592;7.180;2024-01-16T08:29:58;1.50;3.30
37956;DHT22;23776;51.592;7.180;2024-01-16T08:32:23;1.50;4.80
37956;DHT22;23776;51.592;7.180;2024-01-16T08:34:49;1.50;5.00
37956;DHT22;23776;51.592;7.180;2024-01-16T08:37:14;1.50;2.60
37956;DHT22;23776;51.592;7.180;2024-01-16T08:39:40;1.40;2.10
37956;DHT22;23776;51.592;7.180;2024-01-16T08:42:06;1.40;3.60
37956;DHT22;23776;51.592;7.180;2024-01-16T08:44:31;1.50;2.90
37956;DHT22;23776;51.592;7.180;2024-01-16T08:46:57;1.50;1.00
37956;DHT22;23776;51.592;7.180;2024-01-16T08:49:24;1.40;1.00
37956;DHT22;23776;51.592;7.180;2024-01-16T08:51:50;1.40;1.00
37956;DHT22;23776;51.592;7.180;2024-01-16T08:54:15;1.40;1.00
37956;DHT22;23776;51.592;7.180;2024-01-16T08:56:41;1.40;1.00
37956;DHT22;23776;51.592;7.180;2024-01-16T08:59:07;1.40;1.00
37956;DHT22;23776;51.592;7.180;2024-01-16T09:01:33;1.50;1.00
37956;DHT22;23776;51.592;7.180;2024-01-16T09:03:59;1.50;1.00
37956;DHT22;23776;51.592;7.180;2024-01-16T09:06:24;1.50;1.00
37956;DHT22;23776;51.592;7.180;2024-01-16T09:08:50;1.50;1.00
37956;DHT22;23776;51.592;7.180;2024-01-16T09:11:15;1.50;1.00
37956;DHT22;23776;51.592;7.180;2024-01-16T09:13:41;1.50;1.00
37956;DHT22;23776;51.592;7.180;2024-01-16T09:16:06;1.50;1.00
37956;DHT22;23776;51.592;7.180;2024-01-16T09:18:32;1.50;1.00
37956;DHT22;23776;51.592;7.180;2024-01-16T09:20:57;1.40;1.00
37956;DHT22;23776;51.592;7.180;2024-01-16T09:23:23;1.50;1.00
37956;DHT22;23776;51.592;7.180;2024-01-16T09:25:49;1.60;1.00
37956;DHT22;23776;51.592;7.180;2024-01-16T09:28:15;1.50;1.00
37956;DHT22;23776;51.592;7.180;2024-01-16T09:30:42;1.60;1.00
37956;DHT22;23776;51.592;7.180;2024-01-16T09:33:07;1.60;1.00
37956;DHT22;23776;51.592;7.180;2024-01-16T09:35:35;1.60;1.00
37956;DHT22;23776;51.592;7.180;2024-01-16T09:38:01;1.60;1.00
37956;DHT22;23776;51.592;7.180;2024-01-16T09:40:26;1.60;1.00
37956;DHT22;23776;51.592;7.180;2024-01-16T09:42:52;1.60;1.00
37956;DHT22;23776;51.592;7.180;2024-01-16T09:45:20;1.70;1.00
37956;DHT22;23776;51.592;7.180;2024-01-16T09:47:50;1.60;1.00
37956;DHT22;23776;51.592;7.180;2024-01-16T09:50:16;1.60;1.00
37956;DHT22;23776;51.592;7.180;2024-01-16T09:52:46;3.10;1.00
37956;DHT22;23776;51.592;7.180;2024-01-16T09:55:12;1.70;1.00
37956;DHT22;23776;51.592;7.180;2024-01-16T09:57:40;1.60;1.00
37956;DHT22;23776;51.592;7.180;2024-01-16T10:00:09;1.70;1.00
37956;DHT22;23776;51.592;7.180;2024-01-16T10:02:38;1.70;1.00
37956;DHT22;23776;51.592;7.180;2024-01-16T10:05:04;1.70;1.00
37956;DHT22;23776;51.592;7.180;2024-01-16T10:07:30;1.70;1.00
37956;DHT22;23776;51.592;7.180;2024-01-16T10:09:57;2.70;1.00
37956;DHT22;23776;51.592;7.180;2024-01-16T10:12:23;1.70;1.00
37956;DHT22;23776;51.592;7.180;2024-01-16T10:14:49;1.70;1.00
37956;DHT22;23776;51.592;7.180;2024-01-16T10:17:17;1.70;1.00
37956;DHT22;23776;51.592;7.180;2024-01-16T10:19:53;1.80;1.00
37956;DHT22;23776;51.592;7.180;2024-01-16T10:22:24;1.80;1.00
37956;DHT22;23776;51.592;7.180;2024-01-16T10:25:06;1.80;1.00
37956;DHT22;23776;51.592;7.180;2024-01-16T10:27:34;1.80;1.00
37956;DHT22;23776;51.592;7.180;2024-01-16T10:30:00;1.80;1.00
37956;DHT22;23776;51.592;7.180;2024-01-16T10:32:36;0.30;99.90
37956;DHT22;23776;51.592;7.180;2024-01-16T10:37:50;1.90;99.90
37956;DHT22;23776;51.592;7.180;2024-01-16T10:40:20;1.90;99.90
37956;DHT22;23776;51.592;7.180;2024-01-16T10:42:57;2.00;99.90
37956;DHT22;23776;51.592;7.180;2024-01-16T10:45:23;2.00;99.90
37956;DHT22;23776;51.592;7.180;2024-01-16T10:48:00;1.90;99.90
37956;DHT22;23776;51.592;7.180;2024-01-16T10:50:26;2.00;99.90
37956;DHT22;23776;51.592;7.180;2024-01-16T10:52:52;2.10;99.90
37956;DHT22;23776;51.592;7.180;2024-01-16T10:55:22;2.10;99.90
37956;DHT22;23776;51.592;7.180;2024-01-16T10:57:51;2.20;99.90
37956;DHT22;23776;51.592;7.180;2024-01-16T11:00:21;2.20;99.90
37956;DHT22;23776;51.592;7.180;2024-01-16T11:02:53;2.20;99.90
37956;DHT22;23776;51.592;7.180;2024-01-16T11:05:21;2.20;99.90
37956;DHT22;23776;51.592;7.180;2024-01-16T11:07:48;2.20;99.90
37956;DHT22;23776;51.592;7.180;2024-01-16T11:10:15;4.40;99.90
37956;DHT22;23776;51.592;7.180;2024-01-16T11:12:42;2.30;99.90
37956;DHT22;23776;51.592;7.180;2024-01-16T11:15:10;2.30;99.90
37956;DHT22;23776;51.592;7.180;2024-01-16T11:17:38;2.30;99.90
37956;DHT22;23776;51.592;7.180;2024-01-16T11:20:05;2.40;99.90
37956;DHT22;23776;51.592;7.180;2024-01-16T11:22:44;2.50;3.60
37956;DHT22;23776;51.592;7.180;2024-01-16T11:25:11;2.50;18.70
37956;DHT22;23776;51.592;7.180;2024-01-16T11:27:39;2.60;1.00
37956;DHT22;23776;51.592;7.180;2024-01-16T11:30:10;2.70;1.00
37956;DHT22;23776;51.592;7.180;2024-01-16T11:32:42;2.90;1.00
37956;DHT22;23776;51.592;7.180;2024-01-16T11:35:10;2.90;1.00
37956;DHT22;23776;51.592;7.180;2024-01-16T11:37:40;3.20;99.90
37956;DHT22;23776;51.592;7.180;2024-01-16T11:42:50;3.90;99.90
37956;DHT22;23776;51.592;7.180;2024-01-16T11:45:47;3.90;1.00
37956;DHT22;23776;51.592;7.180;2024-01-16T11:48:14;4.00;99.90
37956;DHT22;23776;51.592;7.180;2024-01-16T11:50:41;3.60;99.90
37956;DHT22;23776;51.592;7.180;2024-01-16T11:53:07;3.30;99.90
37956;DHT22;23776;51.592;7.180;2024-01-16T11:55:53;3.20;99.90
37956;DHT22;23776;51.592;7.180;2024-01-16T11:58:42;3.40;99.90
37956;DHT22;23776;51.592;7.180;2024-01-16T12:01:10;3.70;99.90
37956;DHT22;23776;51.592;7.180;2024-01-16T12:03:37;3.50;99.90
37956;DHT22;23776;51.592;7.180;2024-01-16T12:06:03;2.80;99.90
37956;DHT22;23776;51.592;7.180;2024-01-16T12:08:32;2.80;1.00
37956;DHT22;23776;51.592;7.180;2024-01-16T12:10:58;2.80;1.00
37956;DHT22;23776;51.592;7.180;2024-01-16T12:13:25;2.60;99.90
37956;DHT22;23776;51.592;7.180;2024-01-16T12:16:02;2.40;99.90
37956;DHT22;23776;51.592;7.180;2024-01-16T12:18:29;2.40;99.90
37956;DHT22;23776;51.592;7.180;2024-01-16T12:20:55;2.50;99.90
37956;DHT22;23776;51.592;7.180;2024-01-16T12:23:20;3.00;79.10
37956;DHT22;23776;51.592;7.180;2024-01-16T12:25:52;3.70;1.00
37956;DHT22;23776;51.592;7.180;2024-01-16T12:28:21;4.10;99.90
37956;DHT22;23776;51.592;7.180;2024-01-16T12:30:50;3.90;99.90
37956;DHT22;23776;51.592;7.180;2024-01-16T12:33:18;3.60;99.90
37956;DHT22;23776;51.592;7.180;2024-01-16T12:35:46;3.20;99.90
37956;DHT22;23776;51.592;7.180;2024-01-16T12:38:15;3.20;99.90
37956;DHT22;23776;51.592;7.180;2024-01-16T12:40:51;3.30;1.00
37956;DHT22;23776;51.592;7.180;2024-01-16T12:43:18;3.10;1.00
37956;DHT22;23776;51.592;7.180;2024-01-16T12:45:44;3.00;1.00
37956;DHT22;23776;51.592;7.180;2024-01-16T12:48:10;3.00;99.90
37956;DHT22;23776;51.592;7.180;2024-01-16T12:50:36;3.10;99.90
37956;DHT22;23776;51.592;7.180;2024-01-16T12:53:03;3.00;99.90
37956;DHT22;23776;51.592;7.180;2024-01-16T12:55:30;3.10;99.90
37956;DHT22;23776;51.592;7.180;2024-01-16T13:00:45;3.10;1.00
37956;DHT22;23776;51.592;7.180;2024-01-16T13:05:43;3.30;1.00
37956;DHT22;23776;51.592;7.180;2024-01-16T13:08:09;3.40;99.90
37956;DHT22;23776;51.592;7.180;2024-01-16T13:10:35;3.30;1.00
37956;DHT22;23776;51.592;7.180;2024-01-16T13:13:21;3.20;1.00
37956;DHT22;23776;51.592;7.180;2024-01-16T13:15:47;3.10;99.90
37956;DHT22;23776;51.592;7.180;2024-01-16T13:18:23;2.90;92.30
37956;DHT22;23776;51.592;7.180;2024-01-16T13:20:53;3.00;1.00
37956;DHT22;23776;51.592;7.180;2024-01-16T13:23:20;3.10;99.90
37956;DHT22;23776;51.592;7.180;2024-01-16T13:25:46;3.30;1.00
37956;DHT22;23776;51.592;7.180;2024-01-16T13:28:13;3.50;27.90
37956;DHT22;23776;51.592;7.180;2024-01-16T13:30:39;3.80;99.90
37956;DHT22;23776;51.592;7.180;2024-01-16T13:33:05;4.00;1.00
37956;DHT22;23776;51.592;7.180;2024-01-16T13:35:31;4.20;1.00
37956;DHT22;23776;51.592;7.180;2024-01-16T13:37:58;4.10;99.90
37956;DHT22;23776;51.592;7.180;2024-01-16T13:40:23;4.00;99.90
37956;DHT22;23776;51.592;7.180;2024-01-16T13:42:49;3.80;99.90
37956;DHT22;23776;51.592;7.180;2024-01-16T13:45:14;3.80;99.90
37956;DHT22;23776;51.592;7.180;2024-01-16T13:47:40;3.80;19.20
37956;DHT22;23776;51.592;7.180;2024-01-16T13:50:09;3.80;1.00
37956;DHT22;23776;51.592;7.180;2024-01-16T13:52:35;3.70;29.20
37956;DHT22;23776;51.592;7.180;2024-01-16T13:55:01;3.40;99.90
37956;DHT22;23776;51.592;7.180;2024-01-16T13:57:31;3.40;4.20
37956;DHT22;23776;51.592;7.180;2024-01-16T13:59:56;3.30;94.40
37956;DHT22;23776;51.592;7.180;2024-01-16T14:02:22;3.30;99.90
37956;DHT22;23776;51.592;7.180;2024-01-16T14:04:47;3.20;99.90
37956;DHT22;23776;51.592;7.180;2024-01-16T14:07:13;3.00;42.20
37956;DHT22;23776;51.592;7.180;2024-01-16T14:09:39;3.00;99.90
37956;DHT22;23776;51.592;7.180;2024-01-16T14:12:06;2.90;1.00
37956;DHT22;23776;51.592;7.180;2024-01-16T14:14:33;2.90;99.90
37956;DHT22;23776;51.592;7.180;2024-01-16T14:16:59;2.80;99.90
37956;DHT22;23776;51.592;7.180;2024-01-16T14:19:25;2.80;1.00
37956;DHT22;23776;51.592;7.180;2024-01-16T14:21:52;2.80;99.90
37956;DHT22;23776;51.592;7.180;2024-01-16T14:24:18;2.60;99.90
37956;DHT22;23776;51.592;7.180;2024-01-16T14:26:44;2.60;99.90
37956;DHT22;23776;51.592;7.180;2024-01-16T14:29:11;2.70;24.20
37956;DHT22;23776;51.592;7.180;2024-01-16T14:31:36;2.80;99.90
37956;DHT22;23776;51.592;7.180;2024-01-16T14:34:02;2.90;15.80
37956;DHT22;23776;51.592;7.180;2024-01-16T14:36:29;2.90;1.00
37956;DHT22;23776;51.592;7.180;2024-01-16T14:38:54;2.80;99.90
37956;DHT22;23776;51.592;7.180;2024-01-16T14:41:21;2.80;99.90
37956;DHT22;23776;51.592;7.180;2024-01-16T14:43:47;2.80;1.00
37956;DHT22;23776;51.592;7.180;2024-01-16T14:46:13;2.80;1.00
37956;DHT22;23776;51.592;7.180;2024-01-16T14:48:44;2.80;1.00
37956;DHT22;23776;51.592;7.180;2024-01-16T14:51:09;2.70;99.90
37956;DHT22;23776;51.592;7.180;2024-01-16T14:53:36;2.60;1.00
37956;DHT22;23776;51.592;7.180;2024-01-16T14:56:02;2.60;99.90
37956;DHT22;23776;51.592;7.180;2024-01-16T14:58:28;2.50;99.90
37956;DHT22;23776;51.592;7.180;2024-01-16T15:00:54;2.40;99.90
37956;DHT22;23776;51.592;7.180;2024-01-16T15:03:21;2.40;99.90
37956;DHT22;23776;51.592;7.180;2024-01-16T15:05:48;2.30;1.00
37956;DHT22;23776;51.592;7.180;2024-01-16T15:08:14;2.30;1.00
37956;DHT22;23776;51.592;7.180;2024-01-16T15:10:40;2.30;44.20
37956;DHT22;23776;51.592;7.180;2024-01-16T15:13:05;2.20;1.00
37956;DHT22;23776;51.592;7.180;2024-01-16T15:15:31;2.10;17.70
37956;DHT22;23776;51.592;7.180;2024-01-16T15:17:56;2.00;99.90
37956;DHT22;23776;51.592;7.180;2024-01-16T15:20:23;2.00;99.90
37956;DHT22;23776;51.592;7.180;2024-01-16T15:22:49;2.00;1.00
37956;DHT22;23776;51.592;7.180;2024-01-16T15:25:18;2.00;1.00
37956;DHT22;23776;51.592;7.180;2024-01-16T15:27:47;1.90;1.00
37956;DHT22;23776;51.592;7.180;2024-01-16T15:30:22;1.90;1.00
37956;DHT22;23776;51.592;7.180;2024-01-16T15:32:48;1.70;99.90
37956;DHT22;23776;51.592;7.180;2024-01-16T15:35:14;1.80;99.90
37956;DHT22;23776;51.592;7.180;2024-01-16T15:37:40;1.80;1.00
37956;DHT22;23776;51.592;7.180;2024-01-16T15:40:09;1.70;99.90
37956;DHT22;23776;51.592;7.180;2024-01-16T15:42:37;1.60;1.00
37956;DHT22;23776;51.592;7.180;2024-01-16T15:45:07;-1.10;99.90
37956;DHT22;23776;51.592;7.180;2024-01-16T15:47:35;1.60;99.90
37956;DHT22;23776;51.592;7.180;2024-01-16T15:50:01;1.50;99.90
37956;DHT22;23776;51.592;7.180;2024-01-16T15:52:26;1.50;99.90
37956;DHT22;23776;51.592;7.180;2024-01-16T15:54:52;1.50;99.90
37956;DHT22;23776;51.592;7.180;2024-01-16T15:57:18;1.40;1.00